createdAt,value
2023-04-14T00:00:45.228Z,76.93
2023-04-14T00:03:12.454Z,76.88
2023-04-14T00:05:39.712Z,77.12
2023-04-14T00:08:06.647Z,76.68
2023-04-14T00:10:33.581Z,76.87
2023-04-14T00:13:01.992Z,76.99
2023-04-14T00:15:29.046Z,76.92
2023-04-14T00:17:56.126Z,76.68
2023-04-14T00:20:23.096Z,77.07
2023-04-14T00:22:50.028Z,76.39
2023-04-14T00:25:17.505Z,76.58
2023-04-14T00:27:44.415Z,76.80
2023-04-14T00:30:11.699Z,76.74
2023-04-14T00:32:39.517Z,76.63
2023-04-14T00:35:06.714Z,76.61
2023-04-14T00:37:33.632Z,76.58
2023-04-14T00:40:00.758Z,76.37
2023-04-14T00:42:27.731Z,76.18
2023-04-14T00:44:54.678Z,76.35
2023-04-14T00:47:22.947Z,76.67
2023-04-14T00:49:50.934Z,76.50
2023-04-14T00:52:18.975Z,76.44
2023-04-14T00:54:45.929Z,76.54
2023-04-14T00:57:13.312Z,76.16
2023-04-14T00:59:40.843Z,76.27
2023-04-14T01:02:07.875Z,76.35
2023-04-14T01:04:52.180Z,76.06
2023-04-14T01:07:22.981Z,75.94
2023-04-14T01:09:51.880Z,75.74
2023-04-14T01:12:50.337Z,75.43
2023-04-14T01:15:52.545Z,75.09
2023-04-14T01:18:59.451Z,75.27
2023-04-14T01:21:35.410Z,76.30
2023-04-14T01:24:35.345Z,76.41
2023-04-14T01:27:46.891Z,76.75
2023-04-14T01:30:36.620Z,76.29
2023-04-14T01:33:11.200Z,76.22
2023-04-14T01:35:55.767Z,76.42
2023-04-14T01:38:29.529Z,76.81
2023-04-14T01:41:04.312Z,76.56
2023-04-14T01:43:33.963Z,77.43
2023-04-14T01:46:07.314Z,78.00
2023-04-14T01:48:34.617Z,77.86
2023-04-14T01:51:03.413Z,76.87
2023-04-14T01:53:32.718Z,76.53
2023-04-14T01:56:02.535Z,77.48
2023-04-14T01:58:32.116Z,78.03
2023-04-14T02:00:59.816Z,78.43
2023-04-14T02:03:28.315Z,77.36
2023-04-14T02:05:56.032Z,77.54
2023-04-14T02:08:25.092Z,77.98
2023-04-14T02:10:56.124Z,77.61
2023-04-14T02:13:23.938Z,78.22
2023-04-14T02:15:52.148Z,77.90
2023-04-14T02:18:22.954Z,78.07
2023-04-14T02:20:52.444Z,78.87
2023-04-14T02:23:19.527Z,79.38
2023-04-14T02:25:57.173Z,78.65
2023-04-14T02:28:31.300Z,78.55
2023-04-14T02:31:01.193Z,78.71
2023-04-14T02:33:35.033Z,77.92
2023-04-14T02:36:09.706Z,78.81
2023-04-14T02:38:53.240Z,79.26
2023-04-14T02:41:28.099Z,78.69
2023-04-14T02:44:21.295Z,79.66
2023-04-14T02:47:10.345Z,79.44
2023-04-14T02:49:46.654Z,79.11
2023-04-14T02:52:17.664Z,79.18
2023-04-14T02:54:47.918Z,78.60
2023-04-14T02:57:15.558Z,78.54
2023-04-14T02:59:47.224Z,78.45
2023-04-14T03:02:17.456Z,79.26
2023-04-14T03:04:49.163Z,79.51
2023-04-14T03:07:34.812Z,79.45
2023-04-14T03:10:02.653Z,79.07
2023-04-14T03:12:30.445Z,79.15
2023-04-14T03:14:59.358Z,78.03
2023-04-14T03:17:28.610Z,78.28
2023-04-14T03:19:56.456Z,78.44
2023-04-14T03:22:26.989Z,77.79
2023-04-14T03:24:58.685Z,78.21
2023-04-14T03:27:30.141Z,77.58
2023-04-14T03:30:03.362Z,76.90
2023-04-14T03:32:41.946Z,77.32
2023-04-14T03:35:14.280Z,77.47
2023-04-14T03:37:43.062Z,77.56
2023-04-14T03:40:11.411Z,77.60
2023-04-14T03:42:44.667Z,77.21
2023-04-14T03:45:13.173Z,77.47
2023-04-14T03:47:41.853Z,77.08
2023-04-14T03:50:11.298Z,77.12
2023-04-14T03:52:41.641Z,76.82
2023-04-14T03:55:12.408Z,76.94
2023-04-14T03:57:43.762Z,77.06
2023-04-14T04:00:15.198Z,76.92
2023-04-14T04:02:45.660Z,76.82
2023-04-14T04:05:13.453Z,76.96
2023-04-14T04:07:44.664Z,77.10
2023-04-14T04:10:14.474Z,76.66
2023-04-14T04:12:48.996Z,76.37
2023-04-14T04:15:16.936Z,77.14
2023-04-14T04:17:46.818Z,76.94
2023-04-14T04:20:15.618Z,76.80
2023-04-14T04:22:46.688Z,76.75
2023-04-14T04:25:14.826Z,76.77
2023-04-14T04:27:50.392Z,76.69
2023-04-14T04:30:19.381Z,76.68
2023-04-14T04:32:48.070Z,76.73
2023-04-14T04:35:17.227Z,76.98
2023-04-14T04:37:47.061Z,77.13
2023-04-14T04:40:14.138Z,77.21
2023-04-14T04:42:43.001Z,77.17
2023-04-14T04:45:12.655Z,77.20
2023-04-14T04:47:41.366Z,77.29
2023-04-14T04:50:08.584Z,77.40
2023-04-14T04:52:35.577Z,77.06
2023-04-14T04:55:02.520Z,77.25
2023-04-14T04:57:29.421Z,76.90
2023-04-14T04:59:56.331Z,77.16
2023-04-14T05:02:23.368Z,77.56
2023-04-14T05:04:50.617Z,77.53
2023-04-14T05:07:17.815Z,77.64
2023-04-14T05:09:44.789Z,77.33
2023-04-14T05:12:11.815Z,77.17
2023-04-14T05:14:38.742Z,77.90
2023-04-14T05:17:05.859Z,77.39
2023-04-14T05:19:32.809Z,77.91
2023-04-14T05:21:59.735Z,79.07
2023-04-14T05:24:27.367Z,78.61
2023-04-14T05:27:12.538Z,79.57
2023-04-14T05:29:41.193Z,79.82
2023-04-14T05:32:08.622Z,79.22
2023-04-14T05:34:35.649Z,78.87
2023-04-14T05:37:03.032Z,78.91
2023-04-14T05:39:29.951Z,78.36
2023-04-14T05:41:56.869Z,79.09
2023-04-14T05:44:24.167Z,78.44
2023-04-14T05:46:51.664Z,78.92
2023-04-14T05:49:18.686Z,78.99
2023-04-14T05:51:45.948Z,78.70
2023-04-14T05:54:12.987Z,78.08
2023-04-14T05:56:39.894Z,78.17
2023-04-14T05:59:06.813Z,78.15
2023-04-14T06:01:33.786Z,77.93
2023-04-14T06:04:02.483Z,78.45
2023-04-14T06:06:32.519Z,78.67
2023-04-14T06:08:59.660Z,78.46
2023-04-14T06:11:26.808Z,78.40
2023-04-14T06:13:53.736Z,78.44
2023-04-14T06:16:20.731Z,78.39
2023-04-14T06:18:50.460Z,79.11
2023-04-14T06:21:17.452Z,79.81
2023-04-14T06:23:44.362Z,80.46
2023-04-14T06:26:12.433Z,79.94
2023-04-14T06:28:40.260Z,79.13
2023-04-14T06:31:08.412Z,80.28
2023-04-14T06:33:35.436Z,79.54
2023-04-14T06:36:02.825Z,79.28
2023-04-14T06:38:29.785Z,79.72
2023-04-14T06:40:56.714Z,78.97
2023-04-14T06:43:23.971Z,79.52
2023-04-14T06:45:51.465Z,79.21
2023-04-14T06:48:18.428Z,79.25
2023-04-14T06:50:55.762Z,78.83
2023-04-14T06:53:23.257Z,79.21
2023-04-14T06:55:59.378Z,79.77
2023-04-14T06:58:28.416Z,79.33
2023-04-14T07:01:00.797Z,79.39
2023-04-14T07:03:46.848Z,79.24
2023-04-14T07:06:17.031Z,79.39
2023-04-14T07:08:44.968Z,80.50
2023-04-14T07:11:12.456Z,80.14
2023-04-14T07:13:41.385Z,79.89
2023-04-14T07:16:08.812Z,80.73
2023-04-14T07:18:36.099Z,80.04
2023-04-14T07:21:03.393Z,80.70
2023-04-14T07:23:30.357Z,80.08
2023-04-14T07:25:59.715Z,80.28
2023-04-14T07:28:28.124Z,80.77
2023-04-14T07:30:55.149Z,80.42
2023-04-14T07:33:22.655Z,80.77
2023-04-14T07:36:02.317Z,80.11
2023-04-14T07:38:32.288Z,80.39
2023-04-14T07:41:02.872Z,80.65
2023-04-14T07:43:34.958Z,80.46
2023-04-14T07:46:08.085Z,80.40
2023-04-14T07:48:37.413Z,80.62
2023-04-14T07:51:05.376Z,80.96
2023-04-14T07:53:33.072Z,81.09
2023-04-14T07:56:00.396Z,81.20
2023-04-14T07:58:29.298Z,81.34
2023-04-14T08:00:56.794Z,80.94
2023-04-14T08:03:23.861Z,81.02
2023-04-14T08:05:51.500Z,81.22
2023-04-14T08:08:19.479Z,81.10
2023-04-14T08:10:46.413Z,81.44
2023-04-14T08:13:13.396Z,81.40
2023-04-14T08:15:40.379Z,81.34
2023-04-14T08:18:07.509Z,81.42
2023-04-14T08:20:34.532Z,81.47
2023-04-14T08:23:01.472Z,81.53
2023-04-14T08:25:28.403Z,81.41
2023-04-14T08:27:55.474Z,81.51
2023-04-14T08:30:22.428Z,81.69
2023-04-14T08:32:49.636Z,81.78
2023-04-14T08:35:39.387Z,81.74
2023-04-14T08:38:03.724Z,82.16
2023-04-14T08:40:42.268Z,82.23
2023-04-14T08:43:11.724Z,82.29
2023-04-14T08:45:41.797Z,82.24
2023-04-14T08:48:11.551Z,82.04
2023-04-14T08:50:49.200Z,82.47
2023-04-14T08:53:19.748Z,82.38
2023-04-14T08:55:47.615Z,82.10
2023-04-14T08:58:14.812Z,82.43
2023-04-14T09:00:41.866Z,82.46
2023-04-14T09:03:09.308Z,82.79
2023-04-14T09:05:37.809Z,82.38
2023-04-14T09:08:05.515Z,82.87
2023-04-14T09:10:32.769Z,82.88
2023-04-14T09:13:01.343Z,83.15
2023-04-14T09:15:29.242Z,82.65
2023-04-14T09:17:57.178Z,82.31
2023-04-14T09:20:37.434Z,82.37
2023-04-14T09:23:12.144Z,82.95
2023-04-14T09:25:41.137Z,82.89
2023-04-14T09:28:08.586Z,83.07
2023-04-14T09:30:35.619Z,82.84
2023-04-14T09:35:54.510Z,83.20
2023-04-14T09:38:39.872Z,83.73
2023-04-14T09:41:07.160Z,82.94
2023-04-14T09:43:34.808Z,83.18
2023-04-14T09:46:09.353Z,83.27
2023-04-14T09:48:50.557Z,83.19
2023-04-14T09:51:21.549Z,83.35
2023-04-14T09:53:48.746Z,84.48
2023-04-14T09:56:15.784Z,83.51
2023-04-14T09:58:44.839Z,83.27
2023-04-14T10:01:19.844Z,83.86
2023-04-14T10:03:50.619Z,83.27
2023-04-14T10:06:22.153Z,83.93
2023-04-14T10:08:55.139Z,83.46
2023-04-14T10:11:36.379Z,83.69
2023-04-14T10:14:06.329Z,82.96
2023-04-14T10:16:34.127Z,82.28
2023-04-14T10:19:01.762Z,82.50
2023-04-14T10:21:29.345Z,82.45
2023-04-14T10:23:57.654Z,82.87
2023-04-14T10:26:27.268Z,83.20
2023-04-14T10:28:56.030Z,83.48
2023-04-14T10:31:37.811Z,84.39
2023-04-14T10:34:14.573Z,84.13
2023-04-14T10:36:43.194Z,82.64
2023-04-14T10:39:11.842Z,82.57
2023-04-14T10:41:46.040Z,83.29
2023-04-14T10:44:34.710Z,83.80
2023-04-14T10:47:05.403Z,83.71
2023-04-14T10:49:41.340Z,84.26
2023-04-14T10:52:17.417Z,84.72
2023-04-14T10:55:07.683Z,84.68
2023-04-14T10:57:45.571Z,84.76
2023-04-14T11:00:28.240Z,84.74
2023-04-14T11:02:58.439Z,85.46
2023-04-14T11:05:26.065Z,85.09
2023-04-14T11:07:56.554Z,85.10
2023-04-14T11:10:24.012Z,86.31
2023-04-14T11:13:07.363Z,87.10
2023-04-14T11:15:53.374Z,85.06
2023-04-14T11:18:33.916Z,84.62
2023-04-14T11:21:09.161Z,83.44
2023-04-14T11:23:36.956Z,83.78
2023-04-14T11:26:06.726Z,82.22
2023-04-14T11:28:36.994Z,82.13
2023-04-14T11:31:06.797Z,81.07
2023-04-14T11:33:38.817Z,79.25
2023-04-14T11:36:10.544Z,79.11
2023-04-14T11:38:40.368Z,77.42
2023-04-14T11:41:08.474Z,78.09
2023-04-14T11:43:37.491Z,76.16
2023-04-14T11:46:06.021Z,75.47
2023-04-14T11:48:33.112Z,76.34
2023-04-14T11:51:03.412Z,77.47
2023-04-14T11:53:31.181Z,75.23
2023-04-14T11:55:58.634Z,74.31
2023-04-14T11:58:27.128Z,74.19
2023-04-14T12:00:57.502Z,74.47
2023-04-14T12:03:30.365Z,76.55
2023-04-14T12:06:03.096Z,75.22
2023-04-14T12:08:31.301Z,76.27
2023-04-14T12:10:58.823Z,78.13
2023-04-14T12:13:26.821Z,78.27
2023-04-14T12:15:54.341Z,78.07
2023-04-14T12:18:22.480Z,76.13
2023-04-14T12:20:55.352Z,77.45
2023-04-14T12:23:23.508Z,77.51
2023-04-14T12:25:51.516Z,76.71
2023-04-14T12:28:24.502Z,77.02
2023-04-14T12:30:54.288Z,75.24
2023-04-14T12:33:27.683Z,73.90
2023-04-14T12:36:05.970Z,73.24
2023-04-14T12:38:34.612Z,73.85
2023-04-14T12:41:01.992Z,73.92
2023-04-14T12:43:34.558Z,72.73
2023-04-14T12:46:05.677Z,72.28
2023-04-14T12:48:46.938Z,70.62
2023-04-14T12:51:17.239Z,67.63
2023-04-14T12:53:47.510Z,69.90
2023-04-14T12:56:22.059Z,68.33
2023-04-14T12:58:49.424Z,68.82
2023-04-14T13:01:21.657Z,69.42
2023-04-14T13:03:51.514Z,68.41
2023-04-14T13:06:22.548Z,69.98
2023-04-14T13:08:52.314Z,68.12
2023-04-14T13:11:23.311Z,68.12
2023-04-14T13:13:52.323Z,69.10
2023-04-14T13:16:19.868Z,69.66
2023-04-14T13:18:48.907Z,69.90
2023-04-14T13:21:16.630Z,66.63
2023-04-14T13:23:43.968Z,68.73
2023-04-14T13:26:11.856Z,68.87
2023-04-14T13:28:39.037Z,67.51
2023-04-14T13:31:06.038Z,66.61
2023-04-14T13:33:33.375Z,66.71
2023-04-14T13:36:02.892Z,66.13
2023-04-14T13:38:30.774Z,66.86
2023-04-14T13:40:57.714Z,65.26
2023-04-14T13:43:24.753Z,66.84
2023-04-14T13:45:52.587Z,68.85
2023-04-14T13:48:19.783Z,68.45
2023-04-14T13:50:47.355Z,66.62
2023-04-14T13:53:14.317Z,66.92
2023-04-14T13:55:41.815Z,68.10
2023-04-14T13:58:08.852Z,66.77
2023-04-14T14:00:36.179Z,67.45
2023-04-14T14:03:03.451Z,67.83
2023-04-14T14:05:30.710Z,67.26
2023-04-14T14:07:57.676Z,64.93
2023-04-14T14:10:24.616Z,65.06
2023-04-14T14:12:53.210Z,66.51
2023-04-14T14:15:20.333Z,66.39
2023-04-14T14:17:47.405Z,65.73
2023-04-14T14:20:14.396Z,63.69
2023-04-14T14:22:41.593Z,61.77
2023-04-14T14:25:19.272Z,63.40
2023-04-14T14:27:50.098Z,63.92
2023-04-14T14:30:17.045Z,65.54
2023-04-14T14:32:44.017Z,65.78
2023-04-14T14:35:11.018Z,66.56
2023-04-14T14:37:38.010Z,65.92
2023-04-14T14:40:05.749Z,66.27
2023-04-14T14:42:32.670Z,64.30
2023-04-14T14:45:01.018Z,66.09
2023-04-14T14:47:28.874Z,66.61
2023-04-14T14:50:01.676Z,66.53
2023-04-14T14:52:31.695Z,66.86
2023-04-14T14:54:58.778Z,66.81
2023-04-14T14:57:26.899Z,66.26
2023-04-14T14:59:54.067Z,67.29
2023-04-14T15:02:22.271Z,67.06
2023-04-14T15:04:49.674Z,67.14
2023-04-14T15:07:17.323Z,65.95
2023-04-14T15:09:46.981Z,66.20
2023-04-14T15:12:13.928Z,66.22
2023-04-14T15:14:41.017Z,66.48
2023-04-14T15:17:08.101Z,65.25
2023-04-14T15:19:35.058Z,66.47
2023-04-14T15:22:02.014Z,67.49
2023-04-14T15:24:29.056Z,67.31
2023-04-14T15:26:56.169Z,66.59
2023-04-14T15:29:26.491Z,65.33
2023-04-14T15:31:53.620Z,62.62
2023-04-14T15:34:21.344Z,64.62
2023-04-14T15:36:48.466Z,63.98
2023-04-14T15:39:15.644Z,65.68
2023-04-14T15:41:42.743Z,65.32
2023-04-14T15:44:09.862Z,66.55
2023-04-14T15:46:36.771Z,66.52
2023-04-14T15:49:03.688Z,66.11
2023-04-14T15:51:30.641Z,66.46
2023-04-14T15:53:57.598Z,60.47
2023-04-14T15:56:24.505Z,64.37
2023-04-14T15:58:51.442Z,64.70
2023-04-14T16:01:18.533Z,65.23
2023-04-14T16:03:45.719Z,66.03
2023-04-14T16:06:12.780Z,66.78
2023-04-14T16:08:39.827Z,67.61
2023-04-14T16:11:07.682Z,65.00
2023-04-14T16:13:34.632Z,65.67
2023-04-14T16:16:01.605Z,63.36
2023-04-14T16:18:28.679Z,64.03
2023-04-14T16:20:55.710Z,61.10
2023-04-14T16:23:22.661Z,62.67
2023-04-14T16:25:50.055Z,63.04
2023-04-14T16:28:17.053Z,63.07
2023-04-14T16:30:45.590Z,61.56
2023-04-14T16:33:12.756Z,63.91
2023-04-14T16:35:40.454Z,63.54
2023-04-14T16:38:08.640Z,63.70
2023-04-14T16:40:37.210Z,62.37
2023-04-14T16:43:04.847Z,61.43
2023-04-14T16:45:32.751Z,60.65
2023-04-14T16:48:00.023Z,60.01
2023-04-14T16:50:27.551Z,61.80
2023-04-14T16:52:54.593Z,61.99
2023-04-14T16:55:21.515Z,62.39
2023-04-14T16:57:48.510Z,62.32
2023-04-14T17:00:16.741Z,62.72
2023-04-14T17:02:44.073Z,63.38
2023-04-14T17:05:13.137Z,62.57
2023-04-14T17:07:40.991Z,62.78
2023-04-14T17:10:08.598Z,62.02
2023-04-14T17:12:35.550Z,62.72
2023-04-14T17:15:04.356Z,63.35
2023-04-14T17:17:31.887Z,63.42
2023-04-14T17:19:59.340Z,60.75
2023-04-14T17:22:27.597Z,63.27
2023-04-14T17:24:55.614Z,63.54
2023-04-14T17:27:22.834Z,64.01
2023-04-14T17:29:49.800Z,63.64
2023-04-14T17:32:18.452Z,63.59
2023-04-14T17:34:48.640Z,63.97
2023-04-14T17:37:16.118Z,63.73
2023-04-14T17:39:43.670Z,62.74
2023-04-14T17:42:11.390Z,63.18
2023-04-14T17:44:38.347Z,62.70
2023-04-14T17:47:12.877Z,62.30
2023-04-14T17:49:39.884Z,62.64
2023-04-14T17:52:17.751Z,62.70
2023-04-14T17:54:45.735Z,62.39
2023-04-14T17:57:13.198Z,62.72
2023-04-14T17:59:41.597Z,62.66
2023-04-14T18:02:09.624Z,62.55
2023-04-14T18:04:37.337Z,62.41
2023-04-14T18:07:04.496Z,62.22
2023-04-14T18:09:31.493Z,62.40
2023-04-14T18:11:58.965Z,62.27
2023-04-14T18:14:27.321Z,62.40
2023-04-14T18:16:54.584Z,61.89
2023-04-14T18:19:22.933Z,61.63
2023-04-14T18:21:50.221Z,61.37
2023-04-14T18:26:47.207Z,61.25
2023-04-14T18:29:14.143Z,61.09
2023-04-14T18:31:42.482Z,60.61
2023-04-14T18:34:10.287Z,60.99
2023-04-14T18:36:37.843Z,61.15
2023-04-14T18:39:04.989Z,60.97
2023-04-14T18:41:31.913Z,61.03
2023-04-14T18:43:59.022Z,60.92
2023-04-14T18:46:26.081Z,60.91
2023-04-14T18:48:54.133Z,60.72
2023-04-14T18:51:21.592Z,60.83
2023-04-14T18:53:48.612Z,60.72
2023-04-14T18:56:15.528Z,60.91
2023-04-14T18:58:42.477Z,60.89
2023-04-14T19:01:09.657Z,60.31
2023-04-14T19:03:36.809Z,60.72
2023-04-14T19:06:04.067Z,60.72
2023-04-14T19:08:31.104Z,60.33
2023-04-14T19:10:59.116Z,60.57
2023-04-14T19:13:26.455Z,60.15
2023-04-14T19:16:02.677Z,60.19
2023-04-14T19:18:29.645Z,59.77
2023-04-14T19:20:57.089Z,58.87
2023-04-14T19:23:24.564Z,58.86
2023-04-14T19:25:51.542Z,59.51
2023-04-14T19:28:18.494Z,59.59
2023-04-14T19:30:45.985Z,59.27
2023-04-14T19:33:13.305Z,59.02
2023-04-14T19:35:42.307Z,58.75
2023-04-14T19:38:09.814Z,59.46
2023-04-14T19:40:37.047Z,58.71
2023-04-14T19:43:04.480Z,59.30
2023-04-14T19:45:32.131Z,59.31
2023-04-14T19:47:59.406Z,59.58
2023-04-14T19:50:27.925Z,59.31
2023-04-14T19:52:54.947Z,59.52
2023-04-14T19:55:22.185Z,59.61
2023-04-14T19:57:49.124Z,59.62
2023-04-14T20:00:16.846Z,59.19
2023-04-14T20:02:44.915Z,59.63
2023-04-14T20:05:12.686Z,59.74
2023-04-14T20:07:39.649Z,59.51
2023-04-14T20:10:08.176Z,59.51
2023-04-14T20:12:35.114Z,59.08
2023-04-14T20:15:03.318Z,59.92
2023-04-14T20:17:30.327Z,59.64
2023-04-14T20:19:58.154Z,59.80
2023-04-14T20:22:25.751Z,59.42
2023-04-14T20:24:53.221Z,59.66
2023-04-14T20:27:20.157Z,59.57
2023-04-14T20:29:47.073Z,60.03
2023-04-14T20:32:14.017Z,60.08
2023-04-14T20:34:41.212Z,59.58
2023-04-14T20:37:08.361Z,60.06
2023-04-14T20:39:35.365Z,59.79
2023-04-14T20:42:02.384Z,59.63
2023-04-14T20:44:29.319Z,59.81
2023-04-14T20:46:56.266Z,59.94
2023-04-14T20:49:23.208Z,59.25
2023-04-14T20:51:50.142Z,59.58
2023-04-14T20:54:17.079Z,60.08
2023-04-14T20:56:44.256Z,59.90
2023-04-14T20:59:11.222Z,59.85
2023-04-14T21:01:38.682Z,59.81
2023-04-14T21:04:05.866Z,59.67
2023-04-14T21:06:34.003Z,60.05
2023-04-14T21:09:01.553Z,60.30
2023-04-14T21:11:28.880Z,60.01
2023-04-14T21:15:29.450Z,59.52
2023-04-14T21:16:42.940Z,59.95
2023-04-14T21:19:10.018Z,60.16
2023-04-14T21:21:37.612Z,59.71
2023-04-14T21:24:04.935Z,59.93
2023-04-14T21:26:32.240Z,59.73
2023-04-14T21:28:59.235Z,59.67
2023-04-14T21:31:26.212Z,59.69
2023-04-14T21:33:53.190Z,59.67
2023-04-14T21:36:20.504Z,59.86
2023-04-14T21:38:48.000Z,59.96
2023-04-14T21:41:15.905Z,59.89
2023-04-14T21:43:42.957Z,59.75
2023-04-14T21:46:10.084Z,59.75
2023-04-14T21:48:37.378Z,59.63
2023-04-14T21:51:04.863Z,59.85
2023-04-14T21:53:32.251Z,60.13
2023-04-14T21:56:09.786Z,59.99
2023-04-14T21:58:41.276Z,60.00
2023-04-14T22:01:10.036Z,60.15
2023-04-14T22:03:40.691Z,59.47
2023-04-14T22:06:09.933Z,60.18
2023-04-14T22:08:38.962Z,60.20
2023-04-14T22:11:06.955Z,60.20
2023-04-14T22:13:34.018Z,59.89
2023-04-14T22:16:00.980Z,59.82
2023-04-14T22:18:28.717Z,60.10
2023-04-14T22:20:55.667Z,59.67
2023-04-14T22:23:23.281Z,60.01
2023-04-14T22:25:50.800Z,59.85
2023-04-14T22:28:17.695Z,60.29
2023-04-14T22:30:44.728Z,60.58
2023-04-14T22:33:11.989Z,60.00
2023-04-14T22:35:38.969Z,60.38
2023-04-14T22:38:05.969Z,60.05
2023-04-14T22:40:32.875Z,60.51
2023-04-14T22:42:59.817Z,60.32
2023-04-14T22:45:27.603Z,60.57
2023-04-14T22:47:54.593Z,60.25
2023-04-14T22:50:21.532Z,60.24
2023-04-14T22:52:48.461Z,60.54
2023-04-14T22:55:15.568Z,60.61
2023-04-14T22:57:42.632Z,60.25
2023-04-14T23:00:11.507Z,60.63
2023-04-14T23:02:38.649Z,60.56
2023-04-14T23:05:06.620Z,60.11
2023-04-14T23:07:33.595Z,60.45
2023-04-14T23:10:00.719Z,60.24
2023-04-14T23:12:28.268Z,60.09
2023-04-14T23:14:55.183Z,60.58
2023-04-14T23:17:22.188Z,60.24
2023-04-14T23:19:49.113Z,60.42
2023-04-14T23:22:16.021Z,60.51
2023-04-14T23:24:43.020Z,60.63
2023-04-14T23:27:09.981Z,60.44
2023-04-14T23:29:37.579Z,60.45
2023-04-14T23:32:06.156Z,60.86
2023-04-14T23:34:33.101Z,60.92
2023-04-14T23:37:00.025Z,60.82
2023-04-14T23:39:27.129Z,60.73
2023-04-14T23:41:54.369Z,60.63
2023-04-14T23:44:21.290Z,60.97
2023-04-14T23:46:48.300Z,60.54
2023-04-14T23:49:23.234Z,60.99
2023-04-14T23:51:51.514Z,60.75
2023-04-14T23:54:18.939Z,60.93
2023-04-14T23:56:46.158Z,60.69
2023-04-14T23:59:13.089Z,60.74
